sensor_id;sensor_type;location;lat;lon;timestamp;temperature;humidity
12015;DHT22;6066;48.138;16.402;2024-03-08T00:01:45;3.80;99.90
12015;DHT22;6066;48.138;16.402;2024-03-08T00:04:13;3.70;99.90
12015;DHT22;6066;48.138;16.402;2024-03-08T00:06:40;3.70;99.90
12015;DHT22;6066;48.138;16.402;2024-03-08T00:09:09;3.70;99.90
12015;DHT22;6066;48.138;16.402;2024-03-08T00:11:36;3.60;99.90
12015;DHT22;6066;48.138;16.402;2024-03-08T00:14:02;3.60;99.90
12015;DHT22;6066;48.138;16.402;2024-03-08T00:16:32;3.60;99.90
12015;DHT22;6066;48.138;16.402;2024-03-08T00:18:58;3.60;99.90
12015;DHT22;6066;48.138;16.402;2024-03-08T00:21:27;3.60;99.90
12015;DHT22;6066;48.138;16.402;2024-03-08T00:23:53;3.50;99.90
12015;DHT22;6066;48.138;16.402;2024-03-08T00:26:20;3.50;99.90
12015;DHT22;6066;48.138;16.402;2024-03-08T00:28:47;3.50;99.90
12015;DHT22;6066;48.138;16.402;2024-03-08T00:31:14;3.50;99.90
12015;DHT22;6066;48.138;16.402;2024-03-08T00:33:42;3.40;99.90
12015;DHT22;6066;48.138;16.402;2024-03-08T00:36:11;3.40;99.90
12015;DHT22;6066;48.138;16.402;2024-03-08T00:38:39;3.40;99.90
12015;DHT22;6066;48.138;16.402;2024-03-08T00:41:06;3.40;99.90
12015;DHT22;6066;48.138;16.402;2024-03-08T00:43:33;3.40;99.90
12015;DHT22;6066;48.138;16.402;2024-03-08T00:45:59;3.30;99.90
12015;DHT22;6066;48.138;16.402;2024-03-08T00:48:26;3.30;99.90
12015;DHT22;6066;48.138;16.402;2024-03-08T00:50:53;3.30;99.90
12015;DHT22;6066;48.138;16.402;2024-03-08T00:53:20;3.30;99.90
12015;DHT22;6066;48.138;16.402;2024-03-08T00:55:48;3.20;99.90
12015;DHT22;6066;48.138;16.402;2024-03-08T00:58:15;3.30;99.90
12015;DHT22;6066;48.138;16.402;2024-03-08T01:00:41;3.20;99.90
12015;DHT22;6066;48.138;16.402;2024-03-08T01:03:08;3.20;99.90
12015;DHT22;6066;48.138;16.402;2024-03-08T01:05:36;3.20;99.90
12015;DHT22;6066;48.138;16.402;2024-03-08T01:08:03;3.10;99.90
12015;DHT22;6066;48.138;16.402;2024-03-08T01:10:30;3.10;99.90
12015;DHT22;6066;48.138;16.402;2024-03-08T01:12:58;3.20;99.90
12015;DHT22;6066;48.138;16.402;2024-03-08T01:15:26;3.10;99.90
12015;DHT22;6066;48.138;16.402;2024-03-08T01:17:53;3.10;99.90
12015;DHT22;6066;48.138;16.402;2024-03-08T01:20:19;3.10;99.90
12015;DHT22;6066;48.138;16.402;2024-03-08T01:22:46;3.10;99.90
12015;DHT22;6066;48.138;16.402;2024-03-08T01:25:13;3.10;99.90
12015;DHT22;6066;48.138;16.402;2024-03-08T01:27:40;3.00;99.90
12015;DHT22;6066;48.138;16.402;2024-03-08T01:30:08;3.00;99.90
12015;DHT22;6066;48.138;16.402;2024-03-08T01:32:36;3.00;99.90
12015;DHT22;6066;48.138;16.402;2024-03-08T01:35:03;3.00;99.90
12015;DHT22;6066;48.138;16.402;2024-03-08T01:37:30;3.00;99.90
12015;DHT22;6066;48.138;16.402;2024-03-08T01:39:57;3.00;99.90
12015;DHT22;6066;48.138;16.402;2024-03-08T01:42:24;3.00;99.90
12015;DHT22;6066;48.138;16.402;2024-03-08T01:44:51;3.10;99.90
12015;DHT22;6066;48.138;16.402;2024-03-08T01:47:19;3.10;99.90
12015;DHT22;6066;48.138;16.402;2024-03-08T01:49:48;3.00;99.90
12015;DHT22;6066;48.138;16.402;2024-03-08T01:52:15;3.00;99.90
12015;DHT22;6066;48.138;16.402;2024-03-08T01:54:43;2.90;99.90
12015;DHT22;6066;48.138;16.402;2024-03-08T01:57:11;2.90;99.90
12015;DHT22;6066;48.138;16.402;2024-03-08T01:59:39;2.90;99.90
12015;DHT22;6066;48.138;16.402;2024-03-08T02:02:07;2.80;99.90
12015;DHT22;6066;48.138;16.402;2024-03-08T02:04:36;2.80;99.90
12015;DHT22;6066;48.138;16.402;2024-03-08T02:07:04;2.70;99.90
12015;DHT22;6066;48.138;16.402;2024-03-08T02:09:31;2.70;99.90
12015;DHT22;6066;48.138;16.402;2024-03-08T02:11:58;2.70;99.90
12015;DHT22;6066;48.138;16.402;2024-03-08T02:14:24;2.60;99.90
12015;DHT22;6066;48.138;16.402;2024-03-08T02:16:51;2.60;99.90
12015;DHT22;6066;48.138;16.402;2024-03-08T02:19:17;2.60;99.90
12015;DHT22;6066;48.138;16.402;2024-03-08T02:21:46;2.60;99.90
12015;DHT22;6066;48.138;16.402;2024-03-08T02:24:13;2.60;99.90
12015;DHT22;6066;48.138;16.402;2024-03-08T02:26:40;2.60;99.90
12015;DHT22;6066;48.138;16.402;2024-03-08T02:29:07;2.60;99.90
12015;DHT22;6066;48.138;16.402;2024-03-08T02:31:34;2.60;99.90
12015;DHT22;6066;48.138;16.402;2024-03-08T02:34:01;2.60;99.90
12015;DHT22;6066;48.138;16.402;2024-03-08T02:36:28;2.60;99.90
12015;DHT22;6066;48.138;16.402;2024-03-08T02:38:56;2.60;99.90
12015;DHT22;6066;48.138;16.402;2024-03-08T02:41:23;2.60;99.90
12015;DHT22;6066;48.138;16.402;2024-03-08T02:43:50;2.60;99.90
12015;DHT22;6066;48.138;16.402;2024-03-08T02:46:17;2.60;99.90
12015;DHT22;6066;48.138;16.402;2024-03-08T02:48:43;2.60;99.90
12015;DHT22;6066;48.138;16.402;2024-03-08T02:51:10;2.60;99.90
12015;DHT22;6066;48.138;16.402;2024-03-08T02:53:37;2.60;99.90
12015;DHT22;6066;48.138;16.402;2024-03-08T02:56:05;2.60;99.90
12015;DHT22;6066;48.138;16.402;2024-03-08T02:58:34;2.50;99.90
12015;DHT22;6066;48.138;16.402;2024-03-08T03:01:01;2.50;99.90
12015;DHT22;6066;48.138;16.402;2024-03-08T03:03:27;2.50;99.90
12015;DHT22;6066;48.138;16.402;2024-03-08T03:05:54;2.50;99.90
12015;DHT22;6066;48.138;16.402;2024-03-08T03:08:21;2.50;99.90
12015;DHT22;6066;48.138;16.402;2024-03-08T03:10:49;2.60;99.90
12015;DHT22;6066;48.138;16.402;2024-03-08T03:13:17;2.60;99.90
12015;DHT22;6066;48.138;16.402;2024-03-08T03:15:45;2.60;99.90
12015;DHT22;6066;48.138;16.402;2024-03-08T03:18:12;2.60;99.90
12015;DHT22;6066;48.138;16.402;2024-03-08T03:20:39;2.60;99.90
12015;DHT22;6066;48.138;16.402;2024-03-08T03:23:08;2.70;99.90
12015;DHT22;6066;48.138;16.402;2024-03-08T03:25:35;2.70;99.90
12015;DHT22;6066;48.138;16.402;2024-03-08T03:28:04;2.70;99.90
12015;DHT22;6066;48.138;16.402;2024-03-08T03:30:34;2.70;99.90
12015;DHT22;6066;48.138;16.402;2024-03-08T03:33:01;2.70;99.90
12015;DHT22;6066;48.138;16.402;2024-03-08T03:35:32;2.70;99.90
12015;DHT22;6066;48.138;16.402;2024-03-08T03:37:59;2.70;99.90
12015;DHT22;6066;48.138;16.402;2024-03-08T03:40:32;2.70;99.90
12015;DHT22;6066;48.138;16.402;2024-03-08T03:42:58;2.70;99.90
12015;DHT22;6066;48.138;16.402;2024-03-08T03:45:25;2.70;99.90
12015;DHT22;6066;48.138;16.402;2024-03-08T03:47:53;2.70;99.90
12015;DHT22;6066;48.138;16.402;2024-03-08T03:50:20;2.70;99.90
12015;DHT22;6066;48.138;16.402;2024-03-08T03:52:48;2.70;99.90
12015;DHT22;6066;48.138;16.402;2024-03-08T03:55:15;2.70;99.90
12015;DHT22;6066;48.138;16.402;2024-03-08T03:57:43;2.70;99.90
12015;DHT22;6066;48.138;16.402;2024-03-08T04:00:11;2.70;99.90
12015;DHT22;6066;48.138;16.402;2024-03-08T04:02:38;2.70;99.90
12015;DHT22;6066;48.138;16.402;2024-03-08T04:05:07;2.70;99.90
12015;DHT22;6066;48.138;16.402;2024-03-08T04:07:34;2.70;99.90
12015;DHT22;6066;48.138;16.402;2024-03-08T04:10:00;2.70;99.90
12015;DHT22;6066;48.138;16.402;2024-03-08T04:12:27;2.70;99.90
12015;DHT22;6066;48.138;16.402;2024-03-08T04:14:55;2.70;99.90
12015;DHT22;6066;48.138;16.402;2024-03-08T04:17:22;2.70;99.90
12015;DHT22;6066;48.138;16.402;2024-03-08T04:19:50;2.70;99.90
12015;DHT22;6066;48.138;16.402;2024-03-08T04:22:18;2.70;99.90
12015;DHT22;6066;48.138;16.402;2024-03-08T04:24:45;2.60;99.90
12015;DHT22;6066;48.138;16.402;2024-03-08T04:27:12;2.60;99.90
12015;DHT22;6066;48.138;16.402;2024-03-08T04:29:39;2.60;99.90
12015;DHT22;6066;48.138;16.402;2024-03-08T04:32:07;2.60;99.90
12015;DHT22;6066;48.138;16.402;2024-03-08T04:34:34;2.60;99.90
12015;DHT22;6066;48.138;16.402;2024-03-08T04:37:01;2.60;99.90
12015;DHT22;6066;48.138;16.402;2024-03-08T04:39:29;2.60;99.90
12015;DHT22;6066;48.138;16.402;2024-03-08T04:41:57;2.60;99.90
12015;DHT22;6066;48.138;16.402;2024-03-08T04:44:25;2.60;99.90
12015;DHT22;6066;48.138;16.402;2024-03-08T04:46:52;2.60;99.90
12015;DHT22;6066;48.138;16.402;2024-03-08T04:49:19;2.60;99.90
12015;DHT22;6066;48.138;16.402;2024-03-08T04:51:47;2.60;99.90
12015;DHT22;6066;48.138;16.402;2024-03-08T04:54:13;2.60;99.90
12015;DHT22;6066;48.138;16.402;2024-03-08T04:56:42;2.70;99.90
12015;DHT22;6066;48.138;16.402;2024-03-08T04:59:08;2.70;99.90
12015;DHT22;6066;48.138;16.402;2024-03-08T05:01:35;2.70;99.90
12015;DHT22;6066;48.138;16.402;2024-03-08T05:04:03;2.70;99.90
12015;DHT22;6066;48.138;16.402;2024-03-08T05:06:31;2.70;99.90
12015;DHT22;6066;48.138;16.402;2024-03-08T05:08:58;2.70;99.90
12015;DHT22;6066;48.138;16.402;2024-03-08T05:11:25;2.70;99.90
12015;DHT22;6066;48.138;16.402;2024-03-08T05:13:53;2.70;99.90
12015;DHT22;6066;48.138;16.402;2024-03-08T05:16:20;2.70;99.90
12015;DHT22;6066;48.138;16.402;2024-03-08T05:18:48;2.70;99.90
12015;DHT22;6066;48.138;16.402;2024-03-08T05:21:14;2.70;99.90
12015;DHT22;6066;48.138;16.402;2024-03-08T05:23:45;2.70;99.90
12015;DHT22;6066;48.138;16.402;2024-03-08T05:26:12;2.70;99.90
12015;DHT22;6066;48.138;16.402;2024-03-08T05:28:39;2.70;99.90
12015;DHT22;6066;48.138;16.402;2024-03-08T05:31:07;2.70;99.90
12015;DHT22;6066;48.138;16.402;2024-03-08T05:33:34;2.70;99.90
12015;DHT22;6066;48.138;16.402;2024-03-08T05:36:01;2.70;99.90
12015;DHT22;6066;48.138;16.402;2024-03-08T05:38:28;2.70;99.90
12015;DHT22;6066;48.138;16.402;2024-03-08T05:40:55;2.70;99.90
12015;DHT22;6066;48.138;16.402;2024-03-08T05:43:21;2.70;99.90
12015;DHT22;6066;48.138;16.402;2024-03-08T05:45:48;2.70;99.90
12015;DHT22;6066;48.138;16.402;2024-03-08T05:48:16;2.70;99.90
12015;DHT22;6066;48.138;16.402;2024-03-08T05:50:44;2.70;99.90
12015;DHT22;6066;48.138;16.402;2024-03-08T05:53:11;2.70;99.90
12015;DHT22;6066;48.138;16.402;2024-03-08T05:55:38;2.70;99.90
12015;DHT22;6066;48.138;16.402;2024-03-08T05:58:05;2.60;99.90
12015;DHT22;6066;48.138;16.402;2024-03-08T06:00:33;2.60;99.90
12015;DHT22;6066;48.138;16.402;2024-03-08T06:03:01;2.60;99.90
12015;DHT22;6066;48.138;16.402;2024-03-08T06:05:30;2.70;99.90
12015;DHT22;6066;48.138;16.402;2024-03-08T06:07:56;2.70;99.90
12015;DHT22;6066;48.138;16.402;2024-03-08T06:10:23;2.70;99.90
12015;DHT22;6066;48.138;16.402;2024-03-08T06:12:50;2.70;99.90
12015;DHT22;6066;48.138;16.402;2024-03-08T06:15:17;2.70;99.90
12015;DHT22;6066;48.138;16.402;2024-03-08T06:17:46;2.80;99.90
12015;DHT22;6066;48.138;16.402;2024-03-08T06:20:13;2.80;99.90
12015;DHT22;6066;48.138;16.402;2024-03-08T06:22:41;2.80;99.90
12015;DHT22;6066;48.138;16.402;2024-03-08T06:25:12;2.90;99.90
12015;DHT22;6066;48.138;16.402;2024-03-08T06:27:40;2.90;99.90
12015;DHT22;6066;48.138;16.402;2024-03-08T06:30:08;2.90;99.90
12015;DHT22;6066;48.138;16.402;2024-03-08T06:32:35;3.00;99.90
12015;DHT22;6066;48.138;16.402;2024-03-08T06:35:02;2.90;99.90
12015;DHT22;6066;48.138;16.402;2024-03-08T06:37:31;3.00;99.90
12015;DHT22;6066;48.138;16.402;2024-03-08T06:39:59;2.90;99.90
12015;DHT22;6066;48.138;16.402;2024-03-08T06:42:29;3.00;99.90
12015;DHT22;6066;48.138;16.402;2024-03-08T06:44:59;3.00;99.90
12015;DHT22;6066;48.138;16.402;2024-03-08T06:47:29;3.00;99.90
12015;DHT22;6066;48.138;16.402;2024-03-08T06:49:56;3.00;99.90
12015;DHT22;6066;48.138;16.402;2024-03-08T06:52:22;3.00;99.90
12015;DHT22;6066;48.138;16.402;2024-03-08T06:54:49;3.00;99.90
12015;DHT22;6066;48.138;16.402;2024-03-08T06:57:19;3.00;99.90
12015;DHT22;6066;48.138;16.402;2024-03-08T06:59:47;3.00;99.90
12015;DHT22;6066;48.138;16.402;2024-03-08T07:02:14;3.00;99.90
12015;DHT22;6066;48.138;16.402;2024-03-08T07:04:40;3.10;99.90
12015;DHT22;6066;48.138;16.402;2024-03-08T07:07:07;3.10;99.90
12015;DHT22;6066;48.138;16.402;2024-03-08T07:09:35;3.20;99.90
12015;DHT22;6066;48.138;16.402;2024-03-08T07:12:02;3.30;99.90
12015;DHT22;6066;48.138;16.402;2024-03-08T07:14:30;3.30;99.90
12015;DHT22;6066;48.138;16.402;2024-03-08T07:16:57;3.30;99.90
12015;DHT22;6066;48.138;16.402;2024-03-08T07:19:24;3.40;99.90
12015;DHT22;6066;48.138;16.402;2024-03-08T07:21:51;3.40;99.90
12015;DHT22;6066;48.138;16.402;2024-03-08T07:24:17;3.40;99.90
12015;DHT22;6066;48.138;16.402;2024-03-08T07:27:04;3.40;99.90
12015;DHT22;6066;48.138;16.402;2024-03-08T07:29:33;3.50;99.90
12015;DHT22;6066;48.138;16.402;2024-03-08T07:32:00;3.50;99.90
12015;DHT22;6066;48.138;16.402;2024-03-08T07:34:38;3.50;99.90
12015;DHT22;6066;48.138;16.402;2024-03-08T07:37:05;3.50;99.90
12015;DHT22;6066;48.138;16.402;2024-03-08T07:39:36;3.40;99.90
12015;DHT22;6066;48.138;16.402;2024-03-08T07:42:03;3.40;99.90
12015;DHT22;6066;48.138;16.402;2024-03-08T07:44:30;3.40;99.90
12015;DHT22;6066;48.138;16.402;2024-03-08T07:46:59;3.50;99.90
12015;DHT22;6066;48.138;16.402;2024-03-08T07:49:25;3.50;99.90
12015;DHT22;6066;48.138;16.402;2024-03-08T07:51:52;3.50;99.90
12015;DHT22;6066;48.138;16.402;2024-03-08T07:54:19;3.50;99.90
12015;DHT22;6066;48.138;16.402;2024-03-08T07:56:46;3.50;99.90
12015;DHT22;6066;48.138;16.402;2024-03-08T07:59:13;3.50;99.90
12015;DHT22;6066;48.138;16.402;2024-03-08T08:01:40;3.60;99.90
12015;DHT22;6066;48.138;16.402;2024-03-08T08:04:08;3.60;99.90
12015;DHT22;6066;48.138;16.402;2024-03-08T08:06:37;3.60;99.90
12015;DHT22;6066;48.138;16.402;2024-03-08T08:09:08;3.60;99.90
12015;DHT22;6066;48.138;16.402;2024-03-08T08:11:39;3.60;99.90
12015;DHT22;6066;48.138;16.402;2024-03-08T08:14:08;3.60;99.90
12015;DHT22;6066;48.138;16.402;2024-03-08T08:16:35;3.60;99.90
12015;DHT22;6066;48.138;16.402;2024-03-08T08:19:03;3.60;99.90
12015;DHT22;6066;48.138;16.402;2024-03-08T08:21:34;3.60;99.90
12015;DHT22;6066;48.138;16.402;2024-03-08T08:24:02;3.70;99.90
12015;DHT22;6066;48.138;16.402;2024-03-08T08:26:29;3.70;99.90
12015;DHT22;6066;48.138;16.402;2024-03-08T08:28:56;3.70;99.90
12015;DHT22;6066;48.138;16.402;2024-03-08T08:31:22;3.70;99.90
12015;DHT22;6066;48.138;16.402;2024-03-08T08:33:49;3.70;99.90
12015;DHT22;6066;48.138;16.402;2024-03-08T08:36:19;3.70;99.90
12015;DHT22;6066;48.138;16.402;2024-03-08T08:38:47;3.70;99.90
12015;DHT22;6066;48.138;16.402;2024-03-08T08:41:14;3.60;99.90
12015;DHT22;6066;48.138;16.402;2024-03-08T08:43:42;3.60;99.90
12015;DHT22;6066;48.138;16.402;2024-03-08T08:46:10;3.60;99.90
12015;DHT22;6066;48.138;16.402;2024-03-08T08:48:38;3.60;99.90
12015;DHT22;6066;48.138;16.402;2024-03-08T08:51:06;3.50;99.90
12015;DHT22;6066;48.138;16.402;2024-03-08T08:53:37;3.60;99.90
12015;DHT22;6066;48.138;16.402;2024-03-08T08:56:07;3.60;99.90
12015;DHT22;6066;48.138;16.402;2024-03-08T08:58:34;3.60;99.90
12015;DHT22;6066;48.138;16.402;2024-03-08T09:01:01;3.60;99.90
12015;DHT22;6066;48.138;16.402;2024-03-08T09:03:28;3.70;99.90
12015;DHT22;6066;48.138;16.402;2024-03-08T09:05:55;3.70;99.90
12015;DHT22;6066;48.138;16.402;2024-03-08T09:08:22;3.70;99.90
12015;DHT22;6066;48.138;16.402;2024-03-08T09:10:50;3.80;99.90
12015;DHT22;6066;48.138;16.402;2024-03-08T09:13:18;3.80;99.90
12015;DHT22;6066;48.138;16.402;2024-03-08T09:15:45;3.80;99.90
12015;DHT22;6066;48.138;16.402;2024-03-08T09:18:12;3.80;99.90
12015;DHT22;6066;48.138;16.402;2024-03-08T09:20:38;3.90;99.90
12015;DHT22;6066;48.138;16.402;2024-03-08T09:23:07;3.90;99.90
12015;DHT22;6066;48.138;16.402;2024-03-08T09:25:34;3.90;99.90
12015;DHT22;6066;48.138;16.402;2024-03-08T09:28:01;3.90;99.90
12015;DHT22;6066;48.138;16.402;2024-03-08T09:30:29;3.90;99.90
12015;DHT22;6066;48.138;16.402;2024-03-08T09:32:56;3.90;99.90
12015;DHT22;6066;48.138;16.402;2024-03-08T09:35:23;3.90;99.90
12015;DHT22;6066;48.138;16.402;2024-03-08T09:37:50;4.00;99.90
12015;DHT22;6066;48.138;16.402;2024-03-08T09:40:17;3.90;99.90
12015;DHT22;6066;48.138;16.402;2024-03-08T09:42:45;4.00;99.90
12015;DHT22;6066;48.138;16.402;2024-03-08T09:45:12;4.10;99.90
12015;DHT22;6066;48.138;16.402;2024-03-08T09:47:42;4.20;99.90
12015;DHT22;6066;48.138;16.402;2024-03-08T09:50:09;4.30;99.90
12015;DHT22;6066;48.138;16.402;2024-03-08T09:52:40;4.50;99.90
12015;DHT22;6066;48.138;16.402;2024-03-08T09:55:09;4.50;99.90
12015;DHT22;6066;48.138;16.402;2024-03-08T09:57:36;4.60;99.90
12015;DHT22;6066;48.138;16.402;2024-03-08T10:00:04;4.60;99.90
12015;DHT22;6066;48.138;16.402;2024-03-08T10:02:46;4.70;99.90
12015;DHT22;6066;48.138;16.402;2024-03-08T10:05:13;4.80;99.90
12015;DHT22;6066;48.138;16.402;2024-03-08T10:07:40;4.90;99.90
12015;DHT22;6066;48.138;16.402;2024-03-08T10:10:07;4.90;99.90
12015;DHT22;6066;48.138;16.402;2024-03-08T10:12:37;5.00;99.90
12015;DHT22;6066;48.138;16.402;2024-03-08T10:15:05;5.00;99.90
12015;DHT22;6066;48.138;16.402;2024-03-08T10:17:33;5.10;99.90
12015;DHT22;6066;48.138;16.402;2024-03-08T10:20:02;5.10;99.90
12015;DHT22;6066;48.138;16.402;2024-03-08T10:22:40;5.20;99.90
12015;DHT22;6066;48.138;16.402;2024-03-08T10:25:08;5.30;99.90
12015;DHT22;6066;48.138;16.402;2024-03-08T10:27:36;5.50;99.90
12015;DHT22;6066;48.138;16.402;2024-03-08T10:30:05;5.70;99.90
12015;DHT22;6066;48.138;16.402;2024-03-08T10:32:33;5.70;99.90
12015;DHT22;6066;48.138;16.402;2024-03-08T10:35:02;5.80;99.90
12015;DHT22;6066;48.138;16.402;2024-03-08T10:37:29;6.10;99.90
12015;DHT22;6066;48.138;16.402;2024-03-08T10:40:02;6.20;99.90
12015;DHT22;6066;48.138;16.402;2024-03-08T10:42:35;6.50;99.90
12015;DHT22;6066;48.138;16.402;2024-03-08T10:45:05;6.70;99.90
12015;DHT22;6066;48.138;16.402;2024-03-08T10:47:39;6.80;99.90
12015;DHT22;6066;48.138;16.402;2024-03-08T10:50:11;6.70;99.90
12015;DHT22;6066;48.138;16.402;2024-03-08T10:52:48;6.70;99.90
12015;DHT22;6066;48.138;16.402;2024-03-08T10:55:16;6.60;99.90
12015;DHT22;6066;48.138;16.402;2024-03-08T10:57:45;6.60;99.90
12015;DHT22;6066;48.138;16.402;2024-03-08T11:00:13;6.50;99.90
12015;DHT22;6066;48.138;16.402;2024-03-08T11:02:43;6.50;99.90
12015;DHT22;6066;48.138;16.402;2024-03-08T11:05:11;6.40;99.90
12015;DHT22;6066;48.138;16.402;2024-03-08T11:07:42;6.30;99.90
12015;DHT22;6066;48.138;16.402;2024-03-08T11:10:18;6.30;99.90
12015;DHT22;6066;48.138;16.402;2024-03-08T11:12:45;6.40;99.90
12015;DHT22;6066;48.138;16.402;2024-03-08T11:15:13;6.40;99.90
12015;DHT22;6066;48.138;16.402;2024-03-08T11:17:47;6.50;99.90
12015;DHT22;6066;48.138;16.402;2024-03-08T11:20:16;6.70;99.90
12015;DHT22;6066;48.138;16.402;2024-03-08T11:22:47;6.80;99.90
12015;DHT22;6066;48.138;16.402;2024-03-08T11:25:30;6.80;99.90
12015;DHT22;6066;48.138;16.402;2024-03-08T11:28:06;6.80;99.90
12015;DHT22;6066;48.138;16.402;2024-03-08T11:30:33;6.70;99.90
12015;DHT22;6066;48.138;16.402;2024-03-08T11:33:00;6.80;99.90
12015;DHT22;6066;48.138;16.402;2024-03-08T11:35:30;6.90;99.90
12015;DHT22;6066;48.138;16.402;2024-03-08T11:37:57;7.20;99.90
12015;DHT22;6066;48.138;16.402;2024-03-08T11:40:25;7.20;99.90
12015;DHT22;6066;48.138;16.402;2024-03-08T11:42:52;7.20;99.90
12015;DHT22;6066;48.138;16.402;2024-03-08T11:45:20;7.10;99.90
12015;DHT22;6066;48.138;16.402;2024-03-08T11:47:47;6.90;99.90
12015;DHT22;6066;48.138;16.402;2024-03-08T11:50:14;6.80;99.90
12015;DHT22;6066;48.138;16.402;2024-03-08T11:52:43;6.80;99.90
12015;DHT22;6066;48.138;16.402;2024-03-08T11:55:10;6.80;99.90
12015;DHT22;6066;48.138;16.402;2024-03-08T11:57:38;6.70;99.90
12015;DHT22;6066;48.138;16.402;2024-03-08T12:00:05;6.70;99.90
12015;DHT22;6066;48.138;16.402;2024-03-08T12:02:32;6.60;99.90
12015;DHT22;6066;48.138;16.402;2024-03-08T12:05:01;6.60;99.90
12015;DHT22;6066;48.138;16.402;2024-03-08T12:07:28;6.50;99.90
12015;DHT22;6066;48.138;16.402;2024-03-08T12:12:44;6.60;99.90
12015;DHT22;6066;48.138;16.402;2024-03-08T12:15:13;6.60;99.90
12015;DHT22;6066;48.138;16.402;2024-03-08T12:17:41;6.60;99.90
12015;DHT22;6066;48.138;16.402;2024-03-08T12:22:55;6.60;99.90
12015;DHT22;6066;48.138;16.402;2024-03-08T12:25:22;6.70;99.90
12015;DHT22;6066;48.138;16.402;2024-03-08T12:27:50;6.80;99.90
12015;DHT22;6066;48.138;16.402;2024-03-08T12:30:19;6.80;99.90
12015;DHT22;6066;48.138;16.402;2024-03-08T12:32:48;6.70;99.90
12015;DHT22;6066;48.138;16.402;2024-03-08T12:35:17;6.70;99.90
12015;DHT22;6066;48.138;16.402;2024-03-08T12:37:44;6.60;99.90
12015;DHT22;6066;48.138;16.402;2024-03-08T12:40:11;6.70;99.90
12015;DHT22;6066;48.138;16.402;2024-03-08T12:42:42;6.70;99.90
12015;DHT22;6066;48.138;16.402;2024-03-08T12:45:10;6.80;99.90
12015;DHT22;6066;48.138;16.402;2024-03-08T12:47:37;6.80;99.90
12015;DHT22;6066;48.138;16.402;2024-03-08T12:50:04;6.80;99.90
12015;DHT22;6066;48.138;16.402;2024-03-08T12:52:32;6.70;99.90
12015;DHT22;6066;48.138;16.402;2024-03-08T12:54:59;6.70;99.90
12015;DHT22;6066;48.138;16.402;2024-03-08T12:57:29;6.70;99.90
12015;DHT22;6066;48.138;16.402;2024-03-08T12:59:56;6.70;99.90
12015;DHT22;6066;48.138;16.402;2024-03-08T13:02:24;6.60;99.90
12015;DHT22;6066;48.138;16.402;2024-03-08T13:04:53;6.60;99.90
12015;DHT22;6066;48.138;16.402;2024-03-08T13:07:23;6.60;99.90
12015;DHT22;6066;48.138;16.402;2024-03-08T13:09:51;6.60;99.90
12015;DHT22;6066;48.138;16.402;2024-03-08T13:12:18;6.60;99.90
12015;DHT22;6066;48.138;16.402;2024-03-08T13:14:45;6.60;99.90
12015;DHT22;6066;48.138;16.402;2024-03-08T13:17:13;6.60;99.90
12015;DHT22;6066;48.138;16.402;2024-03-08T13:19:41;6.60;99.90
12015;DHT22;6066;48.138;16.402;2024-03-08T13:22:09;6.60;99.90
12015;DHT22;6066;48.138;16.402;2024-03-08T13:24:38;6.70;99.90
12015;DHT22;6066;48.138;16.402;2024-03-08T13:27:07;6.70;99.90
12015;DHT22;6066;48.138;16.402;2024-03-08T13:29:45;6.80;99.90
12015;DHT22;6066;48.138;16.402;2024-03-08T13:32:13;6.80;99.90
12015;DHT22;6066;48.138;16.402;2024-03-08T13:34:42;6.80;99.90
12015;DHT22;6066;48.138;16.402;2024-03-08T13:37:09;6.80;99.90
12015;DHT22;6066;48.138;16.402;2024-03-08T13:39:37;6.80;99.90
12015;DHT22;6066;48.138;16.402;2024-03-08T13:42:09;6.60;99.90
12015;DHT22;6066;48.138;16.402;2024-03-08T13:44:39;6.70;99.90
12015;DHT22;6066;48.138;16.402;2024-03-08T13:47:06;6.60;99.90
12015;DHT22;6066;48.138;16.402;2024-03-08T13:49:32;6.80;99.90
12015;DHT22;6066;48.138;16.402;2024-03-08T13:52:01;6.80;99.90
12015;DHT22;6066;48.138;16.402;2024-03-08T13:54:28;6.70;99.90
12015;DHT22;6066;48.138;16.402;2024-03-08T13:56:57;6.80;99.90
12015;DHT22;6066;48.138;16.402;2024-03-08T13:59:24;6.80;99.90
12015;DHT22;6066;48.138;16.402;2024-03-08T14:01:54;6.80;99.90
12015;DHT22;6066;48.138;16.402;2024-03-08T14:04:21;6.80;99.90
12015;DHT22;6066;48.138;16.402;2024-03-08T14:06:49;6.80;99.90
12015;DHT22;6066;48.138;16.402;2024-03-08T14:09:19;6.80;99.90
12015;DHT22;6066;48.138;16.402;2024-03-08T14:11:50;6.80;99.90
12015;DHT22;6066;48.138;16.402;2024-03-08T14:14:19;6.80;99.90
12015;DHT22;6066;48.138;16.402;2024-03-08T14:16:46;6.90;99.90
12015;DHT22;6066;48.138;16.402;2024-03-08T14:19:14;6.90;99.90
12015;DHT22;6066;48.138;16.402;2024-03-08T14:21:41;7.00;99.90
12015;DHT22;6066;48.138;16.402;2024-03-08T14:24:08;7.00;99.90
12015;DHT22;6066;48.138;16.402;2024-03-08T14:26:36;7.10;99.90
12015;DHT22;6066;48.138;16.402;2024-03-08T14:29:04;7.20;99.90
12015;DHT22;6066;48.138;16.402;2024-03-08T14:31:31;7.30;99.90
12015;DHT22;6066;48.138;16.402;2024-03-08T14:33:58;7.20;99.90
12015;DHT22;6066;48.138;16.402;2024-03-08T14:36:25;7.30;99.90
12015;DHT22;6066;48.138;16.402;2024-03-08T14:38:52;7.30;99.90
12015;DHT22;6066;48.138;16.402;2024-03-08T14:41:19;7.30;99.90
12015;DHT22;6066;48.138;16.402;2024-03-08T14:43:48;7.30;99.90
12015;DHT22;6066;48.138;16.402;2024-03-08T14:46:18;7.30;99.90
12015;DHT22;6066;48.138;16.402;2024-03-08T14:48:46;7.30;99.90
12015;DHT22;6066;48.138;16.402;2024-03-08T14:51:13;7.40;99.90
12015;DHT22;6066;48.138;16.402;2024-03-08T14:53:40;7.40;99.90
12015;DHT22;6066;48.138;16.402;2024-03-08T14:56:07;7.50;99.90
12015;DHT22;6066;48.138;16.402;2024-03-08T14:58:34;7.50;99.90
12015;DHT22;6066;48.138;16.402;2024-03-08T15:01:05;7.50;99.90
12015;DHT22;6066;48.138;16.402;2024-03-08T15:03:35;7.70;99.90
12015;DHT22;6066;48.138;16.402;2024-03-08T15:06:02;7.70;99.90
12015;DHT22;6066;48.138;16.402;2024-03-08T15:08:33;7.60;99.90
12015;DHT22;6066;48.138;16.402;2024-03-08T15:11:00;7.50;99.90
12015;DHT22;6066;48.138;16.402;2024-03-08T15:13:27;7.30;99.90
12015;DHT22;6066;48.138;16.402;2024-03-08T15:16:08;7.20;99.90
12015;DHT22;6066;48.138;16.402;2024-03-08T15:18:40;7.10;99.90
12015;DHT22;6066;48.138;16.402;2024-03-08T15:21:07;7.10;99.90
12015;DHT22;6066;48.138;16.402;2024-03-08T15:23:34;7.00;99.90
12015;DHT22;6066;48.138;16.402;2024-03-08T15:26:01;7.00;99.90
12015;DHT22;6066;48.138;16.402;2024-03-08T15:28:29;7.00;99.90
12015;DHT22;6066;48.138;16.402;2024-03-08T15:31:01;7.00;99.90
12015;DHT22;6066;48.138;16.402;2024-03-08T15:33:33;7.00;99.90
12015;DHT22;6066;48.138;16.402;2024-03-08T15:36:00;6.90;99.90
12015;DHT22;6066;48.138;16.402;2024-03-08T15:38:33;6.90;99.90
12015;DHT22;6066;48.138;16.402;2024-03-08T15:40:59;6.90;99.90
12015;DHT22;6066;48.138;16.402;2024-03-08T15:43:27;6.70;99.90
12015;DHT22;6066;48.138;16.402;2024-03-08T15:45:53;6.70;99.90
12015;DHT22;6066;48.138;16.402;2024-03-08T15:48:21;6.60;99.90
12015;DHT22;6066;48.138;16.402;2024-03-08T15:50:51;6.60;99.90
12015;DHT22;6066;48.138;16.402;2024-03-08T15:53:18;6.60;99.90
12015;DHT22;6066;48.138;16.402;2024-03-08T15:55:45;6.50;99.90